sensor_id;sensor_type;location;lat;lon;timestamp;P1;durP1;ratioP1;P2;durP2;ratioP2
21046;SDS011;10682;50.874;3.656;2022-10-29T00:00:54;12.50;;;5.18;;
21046;SDS011;10682;50.874;3.656;2022-10-29T00:03:22;13.10;;;5.05;;
21046;SDS011;10682;50.874;3.656;2022-10-29T00:06:09;8.47;;;4.63;;
21046;SDS011;10682;50.874;3.656;2022-10-29T00:08:38;14.25;;;5.07;;
21046;SDS011;10682;50.874;3.656;2022-10-29T00:11:15;8.50;;;4.87;;
21046;SDS011;10682;50.874;3.656;2022-10-29T00:13:46;11.43;;;4.90;;
21046;SDS011;10682;50.874;3.656;2022-10-29T00:16:17;15.67;;;5.83;;
21046;SDS011;10682;50.874;3.656;2022-10-29T00:18:47;11.77;;;5.30;;
21046;SDS011;10682;50.874;3.656;2022-10-29T00:21:15;15.03;;;5.80;;
21046;SDS011;10682;50.874;3.656;2022-10-29T00:23:44;13.20;;;5.90;;
21046;SDS011;10682;50.874;3.656;2022-10-29T00:26:12;11.33;;;6.20;;
21046;SDS011;10682;50.874;3.656;2022-10-29T00:28:39;19.00;;;6.80;;
21046;SDS011;10682;50.874;3.656;2022-10-29T00:31:07;13.87;;;5.90;;
21046;SDS011;10682;50.874;3.656;2022-10-29T00:33:41;13.73;;;5.57;;
21046;SDS011;10682;50.874;3.656;2022-10-29T00:36:11;11.80;;;6.00;;
21046;SDS011;10682;50.874;3.656;2022-10-29T00:38:41;11.63;;;6.10;;
21046;SDS011;10682;50.874;3.656;2022-10-29T00:41:10;15.13;;;5.50;;
21046;SDS011;10682;50.874;3.656;2022-10-29T00:43:42;14.47;;;5.97;;
21046;SDS011;10682;50.874;3.656;2022-10-29T00:46:15;17.67;;;6.53;;
21046;SDS011;10682;50.874;3.656;2022-10-29T00:48:55;19.93;;;6.90;;
21046;SDS011;10682;50.874;3.656;2022-10-29T00:51:23;18.53;;;7.00;;
21046;SDS011;10682;50.874;3.656;2022-10-29T00:53:53;14.63;;;7.27;;
21046;SDS011;10682;50.874;3.656;2022-10-29T00:56:26;17.10;;;8.00;;
21046;SDS011;10682;50.874;3.656;2022-10-29T00:58:56;19.13;;;8.17;;
21046;SDS011;10682;50.874;3.656;2022-10-29T01:01:23;14.63;;;7.17;;
21046;SDS011;10682;50.874;3.656;2022-10-29T01:03:51;21.73;;;7.83;;
21046;SDS011;10682;50.874;3.656;2022-10-29T01:06:19;16.07;;;7.37;;
21046;SDS011;10682;50.874;3.656;2022-10-29T01:08:48;18.37;;;7.60;;
21046;SDS011;10682;50.874;3.656;2022-10-29T01:11:18;19.00;;;7.97;;
21046;SDS011;10682;50.874;3.656;2022-10-29T01:20:11;16.47;;;7.50;;
21046;SDS011;10682;50.874;3.656;2022-10-29T01:29:34;17.47;;;6.87;;
21046;SDS011;10682;50.874;3.656;2022-10-29T01:35:22;11.63;;;6.07;;
21046;SDS011;10682;50.874;3.656;2022-10-29T01:38:07;16.97;;;7.80;;
21046;SDS011;10682;50.874;3.656;2022-10-29T01:43:48;21.53;;;7.93;;
21046;SDS011;10682;50.874;3.656;2022-10-29T01:46:42;17.17;;;7.93;;
21046;SDS011;10682;50.874;3.656;2022-10-29T01:49:19;15.83;;;6.83;;
21046;SDS011;10682;50.874;3.656;2022-10-29T01:51:51;15.50;;;7.33;;
21046;SDS011;10682;50.874;3.656;2022-10-29T01:54:21;12.70;;;7.00;;
21046;SDS011;10682;50.874;3.656;2022-10-29T01:56:58;18.43;;;7.27;;
21046;SDS011;10682;50.874;3.656;2022-10-29T01:59:26;18.63;;;8.07;;
21046;SDS011;10682;50.874;3.656;2022-10-29T02:02:14;18.97;;;8.13;;
21046;SDS011;10682;50.874;3.656;2022-10-29T02:04:53;15.87;;;8.50;;
21046;SDS011;10682;50.874;3.656;2022-10-29T02:07:34;28.97;;;9.30;;
21046;SDS011;10682;50.874;3.656;2022-10-29T02:10:14;21.83;;;9.13;;
21046;SDS011;10682;50.874;3.656;2022-10-29T02:12:50;24.63;;;9.07;;
21046;SDS011;10682;50.874;3.656;2022-10-29T02:15:20;22.27;;;8.90;;
21046;SDS011;10682;50.874;3.656;2022-10-29T02:18:02;20.93;;;9.23;;
21046;SDS011;10682;50.874;3.656;2022-10-29T02:20:32;22.00;;;8.67;;
21046;SDS011;10682;50.874;3.656;2022-10-29T02:23:00;27.63;;;9.77;;
21046;SDS011;10682;50.874;3.656;2022-10-29T02:25:27;22.83;;;10.23;;
21046;SDS011;10682;50.874;3.656;2022-10-29T02:27:54;25.67;;;9.57;;
21046;SDS011;10682;50.874;3.656;2022-10-29T02:30:22;24.13;;;10.27;;
21046;SDS011;10682;50.874;3.656;2022-10-29T02:32:48;25.27;;;9.37;;
21046;SDS011;10682;50.874;3.656;2022-10-29T02:35:15;21.87;;;9.40;;
21046;SDS011;10682;50.874;3.656;2022-10-29T02:37:43;21.80;;;10.10;;
21046;SDS011;10682;50.874;3.656;2022-10-29T02:40:10;21.27;;;10.13;;
21046;SDS011;10682;50.874;3.656;2022-10-29T02:42:38;19.13;;;9.77;;
21046;SDS011;10682;50.874;3.656;2022-10-29T02:45:05;17.20;;;8.17;;
21046;SDS011;10682;50.874;3.656;2022-10-29T02:47:32;23.35;;;8.70;;
21046;SDS011;10682;50.874;3.656;2022-10-29T02:49:59;26.43;;;10.67;;
21046;SDS011;10682;50.874;3.656;2022-10-29T02:52:26;28.20;;;9.97;;
21046;SDS011;10682;50.874;3.656;2022-10-29T02:54:53;24.65;;;10.23;;
21046;SDS011;10682;50.874;3.656;2022-10-29T02:57:20;28.48;;;10.93;;
21046;SDS011;10682;50.874;3.656;2022-10-29T02:59:47;26.02;;;10.02;;
21046;SDS011;10682;50.874;3.656;2022-10-29T03:02:14;22.98;;;9.82;;
21046;SDS011;10682;50.874;3.656;2022-10-29T03:04:41;16.20;;;8.80;;
21046;SDS011;10682;50.874;3.656;2022-10-29T03:07:09;22.53;;;8.80;;
21046;SDS011;10682;50.874;3.656;2022-10-29T03:09:36;21.52;;;9.70;;
21046;SDS011;10682;50.874;3.656;2022-10-29T03:12:03;18.00;;;8.95;;
21046;SDS011;10682;50.874;3.656;2022-10-29T03:14:31;17.40;;;8.85;;
21046;SDS011;10682;50.874;3.656;2022-10-29T03:16:58;22.05;;;9.02;;
21046;SDS011;10682;50.874;3.656;2022-10-29T03:19:25;23.95;;;9.80;;
21046;SDS011;10682;50.874;3.656;2022-10-29T03:21:52;20.95;;;9.40;;
21046;SDS011;10682;50.874;3.656;2022-10-29T03:24:19;25.30;;;10.63;;
21046;SDS011;10682;50.874;3.656;2022-10-29T03:26:46;26.60;;;9.30;;
21046;SDS011;10682;50.874;3.656;2022-10-29T03:29:13;23.83;;;9.80;;
21046;SDS011;10682;50.874;3.656;2022-10-29T03:31:40;24.38;;;9.80;;
21046;SDS011;10682;50.874;3.656;2022-10-29T03:34:07;18.52;;;9.32;;
21046;SDS011;10682;50.874;3.656;2022-10-29T03:36:34;20.60;;;9.50;;
21046;SDS011;10682;50.874;3.656;2022-10-29T03:39:00;25.42;;;10.75;;
21046;SDS011;10682;50.874;3.656;2022-10-29T03:41:27;29.95;;;10.93;;
21046;SDS011;10682;50.874;3.656;2022-10-29T03:43:54;25.45;;;10.23;;
21046;SDS011;10682;50.874;3.656;2022-10-29T03:46:21;23.90;;;10.27;;
21046;SDS011;10682;50.874;3.656;2022-10-29T03:48:48;25.58;;;10.43;;
21046;SDS011;10682;50.874;3.656;2022-10-29T03:51:15;28.10;;;11.07;;
21046;SDS011;10682;50.874;3.656;2022-10-29T03:53:42;24.97;;;11.60;;
21046;SDS011;10682;50.874;3.656;2022-10-29T03:56:09;32.08;;;11.20;;
21046;SDS011;10682;50.874;3.656;2022-10-29T03:58:36;25.08;;;11.18;;
21046;SDS011;10682;50.874;3.656;2022-10-29T04:01:04;25.38;;;10.45;;
21046;SDS011;10682;50.874;3.656;2022-10-29T04:03:34;22.38;;;10.80;;
21046;SDS011;10682;50.874;3.656;2022-10-29T04:06:13;30.73;;;11.32;;
21046;SDS011;10682;50.874;3.656;2022-10-29T04:08:41;34.20;;;11.13;;
21046;SDS011;10682;50.874;3.656;2022-10-29T04:11:11;27.58;;;11.10;;
21046;SDS011;10682;50.874;3.656;2022-10-29T04:13:39;27.98;;;11.60;;
21046;SDS011;10682;50.874;3.656;2022-10-29T04:16:06;28.87;;;12.23;;
21046;SDS011;10682;50.874;3.656;2022-10-29T04:18:33;37.13;;;11.70;;
21046;SDS011;10682;50.874;3.656;2022-10-29T04:21:01;33.85;;;11.98;;
21046;SDS011;10682;50.874;3.656;2022-10-29T04:23:48;25.20;;;11.38;;
21046;SDS011;10682;50.874;3.656;2022-10-29T04:26:35;22.17;;;11.13;;
21046;SDS011;10682;50.874;3.656;2022-10-29T04:29:22;29.00;;;11.02;;
21046;SDS011;10682;50.874;3.656;2022-10-29T04:31:49;28.83;;;11.98;;
21046;SDS011;10682;50.874;3.656;2022-10-29T04:34:17;27.00;;;10.90;;
21046;SDS011;10682;50.874;3.656;2022-10-29T04:36:43;23.40;;;11.20;;
21046;SDS011;10682;50.874;3.656;2022-10-29T04:39:10;24.92;;;11.45;;
21046;SDS011;10682;50.874;3.656;2022-10-29T04:41:37;26.73;;;10.93;;
21046;SDS011;10682;50.874;3.656;2022-10-29T04:44:04;26.23;;;10.93;;
21046;SDS011;10682;50.874;3.656;2022-10-29T04:46:31;30.55;;;10.85;;
21046;SDS011;10682;50.874;3.656;2022-10-29T04:48:58;26.60;;;11.15;;
21046;SDS011;10682;50.874;3.656;2022-10-29T04:51:25;21.65;;;9.98;;
21046;SDS011;10682;50.874;3.656;2022-10-29T04:53:52;26.17;;;12.05;;
21046;SDS011;10682;50.874;3.656;2022-10-29T04:56:19;31.25;;;12.30;;
21046;SDS011;10682;50.874;3.656;2022-10-29T04:58:49;28.65;;;12.02;;
21046;SDS011;10682;50.874;3.656;2022-10-29T05:01:17;24.75;;;11.40;;
21046;SDS011;10682;50.874;3.656;2022-10-29T05:03:45;25.88;;;10.90;;
21046;SDS011;10682;50.874;3.656;2022-10-29T05:06:12;25.92;;;11.52;;
21046;SDS011;10682;50.874;3.656;2022-10-29T05:08:39;22.70;;;12.20;;
21046;SDS011;10682;50.874;3.656;2022-10-29T05:11:06;33.05;;;12.95;;
21046;SDS011;10682;50.874;3.656;2022-10-29T05:13:33;26.38;;;12.07;;
21046;SDS011;10682;50.874;3.656;2022-10-29T05:16:01;28.40;;;12.20;;
21046;SDS011;10682;50.874;3.656;2022-10-29T05:18:28;31.43;;;12.47;;
21046;SDS011;10682;50.874;3.656;2022-10-29T05:20:56;30.03;;;12.60;;
21046;SDS011;10682;50.874;3.656;2022-10-29T05:23:23;30.70;;;13.07;;
21046;SDS011;10682;50.874;3.656;2022-10-29T05:25:50;24.38;;;11.30;;
21046;SDS011;10682;50.874;3.656;2022-10-29T05:28:19;27.52;;;11.98;;
21046;SDS011;10682;50.874;3.656;2022-10-29T05:30:48;31.75;;;12.10;;
21046;SDS011;10682;50.874;3.656;2022-10-29T05:33:21;25.05;;;11.25;;
21046;SDS011;10682;50.874;3.656;2022-10-29T05:35:49;24.88;;;12.00;;
21046;SDS011;10682;50.874;3.656;2022-10-29T05:38:17;26.80;;;10.83;;
21046;SDS011;10682;50.874;3.656;2022-10-29T05:40:44;30.25;;;11.10;;
21046;SDS011;10682;50.874;3.656;2022-10-29T05:43:12;26.25;;;12.60;;
21046;SDS011;10682;50.874;3.656;2022-10-29T05:45:41;28.13;;;11.25;;
21046;SDS011;10682;50.874;3.656;2022-10-29T05:48:09;26.27;;;11.23;;
21046;SDS011;10682;50.874;3.656;2022-10-29T05:50:42;20.70;;;10.87;;
21046;SDS011;10682;50.874;3.656;2022-10-29T05:53:09;22.17;;;10.73;;
21046;SDS011;10682;50.874;3.656;2022-10-29T05:55:38;25.80;;;10.80;;
21046;SDS011;10682;50.874;3.656;2022-10-29T05:58:08;28.47;;;11.80;;
21046;SDS011;10682;50.874;3.656;2022-10-29T06:00:39;29.10;;;11.73;;
21046;SDS011;10682;50.874;3.656;2022-10-29T06:03:15;29.33;;;11.93;;
21046;SDS011;10682;50.874;3.656;2022-10-29T06:05:47;24.27;;;11.30;;
21046;SDS011;10682;50.874;3.656;2022-10-29T06:08:15;27.08;;;11.07;;
21046;SDS011;10682;50.874;3.656;2022-10-29T06:10:43;31.98;;;12.13;;
21046;SDS011;10682;50.874;3.656;2022-10-29T06:13:16;26.83;;;11.82;;
21046;SDS011;10682;50.874;3.656;2022-10-29T06:15:47;23.23;;;10.53;;
21046;SDS011;10682;50.874;3.656;2022-10-29T06:18:15;22.25;;;12.07;;
21046;SDS011;10682;50.874;3.656;2022-10-29T06:20:42;27.33;;;11.65;;
21046;SDS011;10682;50.874;3.656;2022-10-29T06:23:09;28.52;;;12.60;;
21046;SDS011;10682;50.874;3.656;2022-10-29T06:25:36;29.25;;;11.88;;
21046;SDS011;10682;50.874;3.656;2022-10-29T06:28:04;27.80;;;12.03;;
21046;SDS011;10682;50.874;3.656;2022-10-29T06:30:34;35.03;;;13.03;;
21046;SDS011;10682;50.874;3.656;2022-10-29T06:33:02;30.00;;;12.35;;
21046;SDS011;10682;50.874;3.656;2022-10-29T06:35:30;26.53;;;12.70;;
21046;SDS011;10682;50.874;3.656;2022-10-29T06:37:57;30.67;;;13.03;;
21046;SDS011;10682;50.874;3.656;2022-10-29T06:40:26;32.67;;;13.77;;
21046;SDS011;10682;50.874;3.656;2022-10-29T06:43:00;27.00;;;12.37;;
21046;SDS011;10682;50.874;3.656;2022-10-29T06:45:32;23.90;;;11.75;;
21046;SDS011;10682;50.874;3.656;2022-10-29T06:48:00;33.33;;;11.88;;
21046;SDS011;10682;50.874;3.656;2022-10-29T06:50:27;25.13;;;11.38;;
21046;SDS011;10682;50.874;3.656;2022-10-29T06:52:55;34.00;;;12.87;;
21046;SDS011;10682;50.874;3.656;2022-10-29T06:55:27;25.47;;;12.37;;
21046;SDS011;10682;50.874;3.656;2022-10-29T06:57:59;31.02;;;11.70;;
21046;SDS011;10682;50.874;3.656;2022-10-29T07:00:32;23.08;;;11.38;;
21046;SDS011;10682;50.874;3.656;2022-10-29T07:02:59;22.52;;;11.82;;
21046;SDS011;10682;50.874;3.656;2022-10-29T07:05:27;25.77;;;11.15;;
21046;SDS011;10682;50.874;3.656;2022-10-29T07:07:55;29.02;;;11.52;;
21046;SDS011;10682;50.874;3.656;2022-10-29T07:10:24;23.60;;;11.25;;
21046;SDS011;10682;50.874;3.656;2022-10-29T07:12:56;26.70;;;11.43;;
21046;SDS011;10682;50.874;3.656;2022-10-29T07:15:23;26.15;;;11.38;;
21046;SDS011;10682;50.874;3.656;2022-10-29T07:20:24;26.23;;;12.07;;
21046;SDS011;10682;50.874;3.656;2022-10-29T07:22:53;30.35;;;11.80;;
21046;SDS011;10682;50.874;3.656;2022-10-29T07:25:20;21.08;;;10.43;;
21046;SDS011;10682;50.874;3.656;2022-10-29T07:27:47;28.48;;;11.70;;
21046;SDS011;10682;50.874;3.656;2022-10-29T07:30:14;22.08;;;10.70;;
21046;SDS011;10682;50.874;3.656;2022-10-29T07:32:42;23.02;;;10.65;;
21046;SDS011;10682;50.874;3.656;2022-10-29T07:35:09;22.38;;;9.93;;
21046;SDS011;10682;50.874;3.656;2022-10-29T07:37:36;19.15;;;10.07;;
21046;SDS011;10682;50.874;3.656;2022-10-29T07:40:03;24.38;;;9.75;;
21046;SDS011;10682;50.874;3.656;2022-10-29T07:42:31;23.17;;;9.73;;
21046;SDS011;10682;50.874;3.656;2022-10-29T07:44:58;22.08;;;9.10;;
21046;SDS011;10682;50.874;3.656;2022-10-29T07:47:25;23.92;;;10.23;;
21046;SDS011;10682;50.874;3.656;2022-10-29T07:49:52;22.58;;;9.48;;
21046;SDS011;10682;50.874;3.656;2022-10-29T07:52:19;29.08;;;9.43;;
21046;SDS011;10682;50.874;3.656;2022-10-29T07:54:46;20.58;;;10.00;;
21046;SDS011;10682;50.874;3.656;2022-10-29T07:57:13;33.17;;;9.75;;
21046;SDS011;10682;50.874;3.656;2022-10-29T07:59:41;28.73;;;10.88;;
21046;SDS011;10682;50.874;3.656;2022-10-29T08:02:09;26.75;;;9.70;;
21046;SDS011;10682;50.874;3.656;2022-10-29T08:04:36;22.25;;;8.60;;
21046;SDS011;10682;50.874;3.656;2022-10-29T08:07:03;19.35;;;7.95;;
21046;SDS011;10682;50.874;3.656;2022-10-29T08:09:30;19.98;;;7.90;;
21046;SDS011;10682;50.874;3.656;2022-10-29T08:11:57;20.25;;;7.82;;
21046;SDS011;10682;50.874;3.656;2022-10-29T08:14:24;19.42;;;7.75;;
21046;SDS011;10682;50.874;3.656;2022-10-29T08:16:54;20.85;;;7.53;;
21046;SDS011;10682;50.874;3.656;2022-10-29T08:19:21;17.10;;;7.82;;
21046;SDS011;10682;50.874;3.656;2022-10-29T08:21:48;22.02;;;8.13;;
21046;SDS011;10682;50.874;3.656;2022-10-29T08:24:15;24.52;;;7.88;;
21046;SDS011;10682;50.874;3.656;2022-10-29T08:26:42;18.75;;;7.22;;
21046;SDS011;10682;50.874;3.656;2022-10-29T08:29:09;22.88;;;7.15;;
21046;SDS011;10682;50.874;3.656;2022-10-29T08:31:36;17.73;;;7.18;;
21046;SDS011;10682;50.874;3.656;2022-10-29T08:34:02;15.93;;;6.57;;
21046;SDS011;10682;50.874;3.656;2022-10-29T08:36:36;21.10;;;6.93;;
21046;SDS011;10682;50.874;3.656;2022-10-29T08:39:03;19.73;;;6.30;;
21046;SDS011;10682;50.874;3.656;2022-10-29T08:47:21;17.95;;;5.68;;
21046;SDS011;10682;50.874;3.656;2022-10-29T08:52:36;13.10;;;5.45;;
21046;SDS011;10682;50.874;3.656;2022-10-29T08:55:24;22.50;;;5.88;;
21046;SDS011;10682;50.874;3.656;2022-10-29T08:58:04;17.80;;;5.95;;
21046;SDS011;10682;50.874;3.656;2022-10-29T09:00:51;24.55;;;5.82;;
21046;SDS011;10682;50.874;3.656;2022-10-29T09:03:23;22.50;;;5.68;;
21046;SDS011;10682;50.874;3.656;2022-10-29T09:15:24;17.90;;;5.15;;
21046;SDS011;10682;50.874;3.656;2022-10-29T09:18:18;15.63;;;5.55;;
21046;SDS011;10682;50.874;3.656;2022-10-29T09:31:58;17.17;;;5.00;;
21046;SDS011;10682;50.874;3.656;2022-10-29T09:34:49;21.92;;;5.13;;
21046;SDS011;10682;50.874;3.656;2022-10-29T09:37:35;19.52;;;5.15;;
21046;SDS011;10682;50.874;3.656;2022-10-29T09:40:28;18.63;;;5.60;;
21046;SDS011;10682;50.874;3.656;2022-10-29T09:43:04;17.63;;;4.90;;
21046;SDS011;10682;50.874;3.656;2022-10-29T09:49:29;20.38;;;5.80;;
21046;SDS011;10682;50.874;3.656;2022-10-29T09:52:22;13.10;;;4.47;;
21046;SDS011;10682;50.874;3.656;2022-10-29T09:54:56;13.15;;;5.15;;
21046;SDS011;10682;50.874;3.656;2022-10-29T09:57:25;22.83;;;5.28;;
21046;SDS011;10682;50.874;3.656;2022-10-29T09:59:55;17.77;;;4.63;;
21046;SDS011;10682;50.874;3.656;2022-10-29T10:05:27;17.48;;;5.05;;
21046;SDS011;10682;50.874;3.656;2022-10-29T10:08:02;19.20;;;4.43;;
21046;SDS011;10682;50.874;3.656;2022-10-29T10:10:47;19.42;;;5.60;;
21046;SDS011;10682;50.874;3.656;2022-10-29T10:13:30;17.05;;;4.63;;
21046;SDS011;10682;50.874;3.656;2022-10-29T10:16:18;13.90;;;4.97;;
21046;SDS011;10682;50.874;3.656;2022-10-29T10:18:50;16.67;;;4.65;;
21046;SDS011;10682;50.874;3.656;2022-10-29T10:23:58;15.63;;;4.82;;
21046;SDS011;10682;50.874;3.656;2022-10-29T10:29:20;20.50;;;4.75;;
21046;SDS011;10682;50.874;3.656;2022-10-29T10:34:22;13.63;;;5.72;;
21046;SDS011;10682;50.874;3.656;2022-10-29T10:39:42;12.43;;;4.38;;
21046;SDS011;10682;50.874;3.656;2022-10-29T10:47:21;18.92;;;5.43;;
21046;SDS011;10682;50.874;3.656;2022-10-29T10:49:53;14.93;;;4.85;;
21046;SDS011;10682;50.874;3.656;2022-10-29T10:52:56;23.30;;;5.00;;
21046;SDS011;10682;50.874;3.656;2022-10-29T10:55:27;15.27;;;4.75;;
21046;SDS011;10682;50.874;3.656;2022-10-29T10:58:08;16.30;;;4.35;;
21046;SDS011;10682;50.874;3.656;2022-10-29T11:00:46;13.25;;;4.50;;
21046;SDS011;10682;50.874;3.656;2022-10-29T11:03:23;23.00;;;4.95;;
21046;SDS011;10682;50.874;3.656;2022-10-29T11:11:40;14.10;;;5.03;;
21046;SDS011;10682;50.874;3.656;2022-10-29T11:14:24;14.85;;;4.50;;
21046;SDS011;10682;50.874;3.656;2022-10-29T11:17:02;18.90;;;4.93;;
21046;SDS011;10682;50.874;3.656;2022-10-29T11:19:49;15.18;;;4.78;;
21046;SDS011;10682;50.874;3.656;2022-10-29T11:22:36;18.30;;;4.60;;
21046;SDS011;10682;50.874;3.656;2022-10-29T11:25:32;17.15;;;4.60;;
21046;SDS011;10682;50.874;3.656;2022-10-29T11:31:12;22.38;;;5.05;;
21046;SDS011;10682;50.874;3.656;2022-10-29T11:37:13;13.68;;;3.97;;
21046;SDS011;10682;50.874;3.656;2022-10-29T11:40:17;18.50;;;4.55;;
21046;SDS011;10682;50.874;3.656;2022-10-29T11:43:09;17.58;;;5.07;;
21046;SDS011;10682;50.874;3.656;2022-10-29T11:45:43;21.90;;;4.82;;
21046;SDS011;10682;50.874;3.656;2022-10-29T11:54:58;17.88;;;4.63;;
21046;SDS011;10682;50.874;3.656;2022-10-29T11:57:58;19.80;;;4.70;;
21046;SDS011;10682;50.874;3.656;2022-10-29T12:00:23;27.23;;;4.72;;
21046;SDS011;10682;50.874;3.656;2022-10-29T12:02:58;15.52;;;4.43;;
21046;SDS011;10682;50.874;3.656;2022-10-29T12:11:44;16.85;;;4.53;;
21046;SDS011;10682;50.874;3.656;2022-10-29T12:14:32;18.92;;;4.40;;
21046;SDS011;10682;50.874;3.656;2022-10-29T12:17:40;15.13;;;4.22;;
21046;SDS011;10682;50.874;3.656;2022-10-29T12:26:25;16.13;;;4.43;;
21046;SDS011;10682;50.874;3.656;2022-10-29T12:29:19;22.70;;;3.90;;
21046;SDS011;10682;50.874;3.656;2022-10-29T12:31:56;22.77;;;4.35;;
21046;SDS011;10682;50.874;3.656;2022-10-29T12:37:30;14.02;;;4.32;;
21046;SDS011;10682;50.874;3.656;2022-10-29T12:40:42;15.00;;;4.38;;
21046;SDS011;10682;50.874;3.656;2022-10-29T12:43:17;17.15;;;4.25;;
21046;SDS011;10682;50.874;3.656;2022-10-29T12:57:03;15.98;;;4.22;;
21046;SDS011;10682;50.874;3.656;2022-10-29T12:59:40;15.23;;;4.57;;
21046;SDS011;10682;50.874;3.656;2022-10-29T13:10:56;14.05;;;4.00;;
21046;SDS011;10682;50.874;3.656;2022-10-29T13:15:28;21.20;;;3.90;;
21046;SDS011;10682;50.874;3.656;2022-10-29T13:21:07;13.82;;;3.90;;
21046;SDS011;10682;50.874;3.656;2022-10-29T13:23:34;13.98;;;4.10;;
21046;SDS011;10682;50.874;3.656;2022-10-29T13:26:07;15.05;;;4.05;;
21046;SDS011;10682;50.874;3.656;2022-10-29T13:41:39;18.88;;;3.83;;
21046;SDS011;10682;50.874;3.656;2022-10-29T13:44:10;16.27;;;4.00;;
21046;SDS011;10682;50.874;3.656;2022-10-29T13:49:45;11.68;;;3.80;;
21046;SDS011;10682;50.874;3.656;2022-10-29T13:52:15;15.52;;;4.30;;
21046;SDS011;10682;50.874;3.656;2022-10-29T13:54:46;19.50;;;4.03;;
21046;SDS011;10682;50.874;3.656;2022-10-29T13:59:59;17.35;;;5.05;;
21046;SDS011;10682;50.874;3.656;2022-10-29T14:07:50;23.92;;;4.72;;
21046;SDS011;10682;50.874;3.656;2022-10-29T14:13:17;15.25;;;4.20;;
21046;SDS011;10682;50.874;3.656;2022-10-29T14:18:43;28.10;;;4.45;;
21046;SDS011;10682;50.874;3.656;2022-10-29T14:23:56;17.58;;;4.25;;
21046;SDS011;10682;50.874;3.656;2022-10-29T14:26:25;17.17;;;3.97;;
21046;SDS011;10682;50.874;3.656;2022-10-29T14:28:55;19.98;;;4.72;;
21046;SDS011;10682;50.874;3.656;2022-10-29T14:31:23;15.73;;;4.15;;
21046;SDS011;10682;50.874;3.656;2022-10-29T14:33:52;21.55;;;4.20;;
21046;SDS011;10682;50.874;3.656;2022-10-29T14:36:29;20.33;;;3.78;;
21046;SDS011;10682;50.874;3.656;2022-10-29T14:39:04;13.48;;;3.67;;
21046;SDS011;10682;50.874;3.656;2022-10-29T14:41:42;22.90;;;4.10;;
21046;SDS011;10682;50.874;3.656;2022-10-29T14:44:19;15.75;;;4.38;;
21046;SDS011;10682;50.874;3.656;2022-10-29T14:47:05;17.27;;;3.90;;
21046;SDS011;10682;50.874;3.656;2022-10-29T14:49:39;12.23;;;4.32;;
21046;SDS011;10682;50.874;3.656;2022-10-29T14:54:51;16.10;;;4.00;;
21046;SDS011;10682;50.874;3.656;2022-10-29T14:57:19;12.73;;;3.58;;
21046;SDS011;10682;50.874;3.656;2022-10-29T14:59:51;11.70;;;3.80;;
21046;SDS011;10682;50.874;3.656;2022-10-29T15:02:43;21.65;;;3.85;;
21046;SDS011;10682;50.874;3.656;2022-10-29T15:05:27;16.10;;;3.65;;
21046;SDS011;10682;50.874;3.656;2022-10-29T15:10:29;19.60;;;3.88;;
21046;SDS011;10682;50.874;3.656;2022-10-29T15:12:57;17.98;;;4.15;;
21046;SDS011;10682;50.874;3.656;2022-10-29T15:15:27;18.55;;;3.85;;
21046;SDS011;10682;50.874;3.656;2022-10-29T15:18:00;20.58;;;4.40;;
21046;SDS011;10682;50.874;3.656;2022-10-29T15:23:04;12.85;;;4.32;;
21046;SDS011;10682;50.874;3.656;2022-10-29T15:28:26;12.07;;;4.07;;
21046;SDS011;10682;50.874;3.656;2022-10-29T15:30:59;14.48;;;4.22;;
21046;SDS011;10682;50.874;3.656;2022-10-29T15:33:28;17.52;;;4.22;;
21046;SDS011;10682;50.874;3.656;2022-10-29T15:36:02;19.15;;;5.07;;
21046;SDS011;10682;50.874;3.656;2022-10-29T15:43:54;18.23;;;4.88;;
21046;SDS011;10682;50.874;3.656;2022-10-29T15:46:22;17.88;;;4.60;;
21046;SDS011;10682;50.874;3.656;2022-10-29T15:48:52;23.58;;;5.00;;
21046;SDS011;10682;50.874;3.656;2022-10-29T15:51:22;21.92;;;4.78;;
21046;SDS011;10682;50.874;3.656;2022-10-29T15:53:56;17.02;;;4.40;;
21046;SDS011;10682;50.874;3.656;2022-10-29T15:56:27;13.82;;;5.22;;
21046;SDS011;10682;50.874;3.656;2022-10-29T15:58:57;23.15;;;5.25;;
21046;SDS011;10682;50.874;3.656;2022-10-29T16:01:25;21.75;;;5.38;;
21046;SDS011;10682;50.874;3.656;2022-10-29T16:03:52;23.95;;;5.75;;
21046;SDS011;10682;50.874;3.656;2022-10-29T16:06:19;21.17;;;5.78;;
21046;SDS011;10682;50.874;3.656;2022-10-29T16:08:47;22.13;;;5.00;;
21046;SDS011;10682;50.874;3.656;2022-10-29T16:11:20;15.50;;;5.68;;
21046;SDS011;10682;50.874;3.656;2022-10-29T16:13:50;17.15;;;5.88;;
21046;SDS011;10682;50.874;3.656;2022-10-29T16:16:21;19.75;;;5.40;;
21046;SDS011;10682;50.874;3.656;2022-10-29T16:18:50;20.35;;;5.60;;
21046;SDS011;10682;50.874;3.656;2022-10-29T16:21:22;16.55;;;5.82;;
21046;SDS011;10682;50.874;3.656;2022-10-29T16:23:51;15.02;;;5.65;;
21046;SDS011;10682;50.874;3.656;2022-10-29T16:26:19;19.10;;;6.18;;
21046;SDS011;10682;50.874;3.656;2022-10-29T16:28:48;16.42;;;5.75;;
21046;SDS011;10682;50.874;3.656;2022-10-29T16:33:50;15.68;;;5.32;;
21046;SDS011;10682;50.874;3.656;2022-10-29T16:36:18;22.10;;;5.93;;
21046;SDS011;10682;50.874;3.656;2022-10-29T16:38:46;12.73;;;5.50;;
21046;SDS011;10682;50.874;3.656;2022-10-29T16:41:13;19.60;;;5.72;;
21046;SDS011;10682;50.874;3.656;2022-10-29T16:43:42;16.05;;;5.68;;
21046;SDS011;10682;50.874;3.656;2022-10-29T16:46:10;15.32;;;5.43;;
21046;SDS011;10682;50.874;3.656;2022-10-29T16:48:38;21.10;;;5.97;;
21046;SDS011;10682;50.874;3.656;2022-10-29T16:51:05;18.30;;;5.18;;
21046;SDS011;10682;50.874;3.656;2022-10-29T16:53:33;17.75;;;5.57;;
21046;SDS011;10682;50.874;3.656;2022-10-29T16:56:00;16.40;;;5.03;;
21046;SDS011;10682;50.874;3.656;2022-10-29T16:58:27;9.30;;;4.82;;
21046;SDS011;10682;50.874;3.656;2022-10-29T17:01:01;17.85;;;5.40;;
21046;SDS011;10682;50.874;3.656;2022-10-29T17:03:33;16.38;;;5.07;;
21046;SDS011;10682;50.874;3.656;2022-10-29T17:06:01;19.10;;;5.05;;
21046;SDS011;10682;50.874;3.656;2022-10-29T17:08:33;21.65;;;5.10;;
21046;SDS011;10682;50.874;3.656;2022-10-29T17:11:03;20.95;;;6.57;;
21046;SDS011;10682;50.874;3.656;2022-10-29T17:13:32;17.45;;;5.20;;
21046;SDS011;10682;50.874;3.656;2022-10-29T17:16:00;15.98;;;5.07;;
21046;SDS011;10682;50.874;3.656;2022-10-29T17:18:35;13.75;;;5.13;;
21046;SDS011;10682;50.874;3.656;2022-10-29T17:21:02;19.75;;;6.20;;
21046;SDS011;10682;50.874;3.656;2022-10-29T17:23:30;19.23;;;4.95;;
21046;SDS011;10682;50.874;3.656;2022-10-29T17:25:58;17.90;;;4.72;;
21046;SDS011;10682;50.874;3.656;2022-10-29T17:28:26;20.60;;;5.55;;
21046;SDS011;10682;50.874;3.656;2022-10-29T17:30:53;22.77;;;5.63;;
21046;SDS011;10682;50.874;3.656;2022-10-29T17:33:20;18.90;;;5.38;;
21046;SDS011;10682;50.874;3.656;2022-10-29T17:35:47;18.60;;;5.55;;
21046;SDS011;10682;50.874;3.656;2022-10-29T17:38:14;18.92;;;5.88;;
21046;SDS011;10682;50.874;3.656;2022-10-29T17:40:41;11.35;;;4.55;;
21046;SDS011;10682;50.874;3.656;2022-10-29T17:43:11;14.95;;;5.38;;
21046;SDS011;10682;50.874;3.656;2022-10-29T17:45:39;18.58;;;4.82;;
21046;SDS011;10682;50.874;3.656;2022-10-29T17:48:08;20.52;;;4.93;;
21046;SDS011;10682;50.874;3.656;2022-10-29T17:50:35;22.05;;;5.22;;
21046;SDS011;10682;50.874;3.656;2022-10-29T17:53:02;16.95;;;5.22;;
21046;SDS011;10682;50.874;3.656;2022-10-29T17:55:29;19.13;;;5.18;;
21046;SDS011;10682;50.874;3.656;2022-10-29T17:57:56;16.38;;;4.75;;
21046;SDS011;10682;50.874;3.656;2022-10-29T18:00:24;24.30;;;5.50;;